createdAt,value
2023-02-19T00:00:38.238Z,73.42
2023-02-19T00:03:40.600Z,73.46
2023-02-19T00:06:42.577Z,73.65
2023-02-19T00:09:44.163Z,73.62
2023-02-19T00:12:45.779Z,73.90
2023-02-19T00:15:47.505Z,74.04
2023-02-19T00:18:49.278Z,74.07
2023-02-19T00:21:52.541Z,73.96
2023-02-19T00:24:54.048Z,74.06
2023-02-19T00:27:55.668Z,74.12
2023-02-19T00:31:05.246Z,74.08
2023-02-19T00:34:06.887Z,74.06
2023-02-19T00:37:08.451Z,74.01
2023-02-19T00:40:10.321Z,74.05
2023-02-19T00:43:11.880Z,74.16
2023-02-19T00:46:13.559Z,74.34
2023-02-19T00:49:17.897Z,74.34
2023-02-19T00:52:19.694Z,74.51
2023-02-19T00:55:24.400Z,74.48
2023-02-19T00:58:26.006Z,74.43
2023-02-19T01:01:27.725Z,74.29
2023-02-19T01:04:29.407Z,74.26
2023-02-19T01:07:31.250Z,74.17
2023-02-19T01:10:33.046Z,74.22
2023-02-19T01:13:35.548Z,74.20
2023-02-19T01:16:37.224Z,74.31
2023-02-19T01:19:38.973Z,74.45
2023-02-19T01:22:40.490Z,74.39
2023-02-19T01:25:42.627Z,74.41
2023-02-19T01:28:44.836Z,74.55
2023-02-19T01:31:46.519Z,74.64
2023-02-19T01:34:48.286Z,74.60
2023-02-19T01:37:49.817Z,74.65
2023-02-19T01:41:00.209Z,74.71
2023-02-19T01:44:05.310Z,74.64
2023-02-19T01:47:06.832Z,74.67
2023-02-19T01:50:08.557Z,74.61
2023-02-19T01:53:12.250Z,74.49
2023-02-19T01:56:16.022Z,74.50
2023-02-19T01:59:18.469Z,74.56
2023-02-19T02:02:20.131Z,74.59
2023-02-19T02:05:34.132Z,74.58
2023-02-19T02:08:54.448Z,74.76
2023-02-19T02:11:56.148Z,74.73
2023-02-19T02:14:57.729Z,74.87
2023-02-19T02:18:14.281Z,74.83
2023-02-19T02:21:25.160Z,74.81
2023-02-19T02:24:47.040Z,74.71
2023-02-19T02:27:59.243Z,74.65
2023-02-19T02:31:15.155Z,74.54
2023-02-19T02:34:30.789Z,74.64
2023-02-19T02:37:35.650Z,74.67
2023-02-19T02:40:40.042Z,74.86
2023-02-19T02:43:42.003Z,74.81
2023-02-19T02:46:45.353Z,74.86
2023-02-19T02:50:05.196Z,74.95
2023-02-19T02:53:36.662Z,75.00
2023-02-19T02:56:40.273Z,75.03
2023-02-19T02:59:42.843Z,75.03
2023-02-19T03:02:44.568Z,75.01
2023-02-19T03:05:52.243Z,74.88
2023-02-19T03:09:12.311Z,74.81
2023-02-19T03:12:34.146Z,74.82
2023-02-19T03:16:20.550Z,74.81
2023-02-19T03:19:23.157Z,74.89
2023-02-19T03:22:31.885Z,74.93
2023-02-19T03:25:54.850Z,75.09
2023-02-19T03:29:23.218Z,75.14
2023-02-19T03:32:33.283Z,75.25
2023-02-19T03:36:06.562Z,75.32
2023-02-19T03:39:11.806Z,75.31
2023-02-19T03:42:37.473Z,75.27
2023-02-19T03:45:49.498Z,75.27
2023-02-19T03:48:57.246Z,75.22
2023-02-19T03:52:11.153Z,75.07
2023-02-19T03:55:52.454Z,75.11
2023-02-19T03:59:09.087Z,75.20
2023-02-19T04:02:18.396Z,75.37
2023-02-19T04:05:23.287Z,75.44
2023-02-19T04:08:25.731Z,75.43
2023-02-19T04:11:33.245Z,75.47
2023-02-19T04:14:43.307Z,75.39
2023-02-19T04:17:50.581Z,75.41
2023-02-19T04:20:52.507Z,75.47
2023-02-19T04:23:54.118Z,75.58
2023-02-19T04:26:56.100Z,75.49
2023-02-19T04:29:57.728Z,75.51
2023-02-19T04:32:59.254Z,75.50
2023-02-19T04:36:00.948Z,75.42
2023-02-19T04:39:02.632Z,75.51
2023-02-19T04:42:04.572Z,75.49
2023-02-19T04:45:06.501Z,75.48
2023-02-19T04:48:09.013Z,75.56
2023-02-19T04:51:11.486Z,75.48
2023-02-19T04:54:13.191Z,75.63
2023-02-19T04:57:14.919Z,75.61
2023-02-19T05:00:16.728Z,75.78
2023-02-19T05:03:18.294Z,75.73
2023-02-19T05:06:20.058Z,75.73
2023-02-19T05:09:21.637Z,75.66
2023-02-19T05:12:23.252Z,75.76
2023-02-19T05:15:24.819Z,75.88
2023-02-19T05:18:26.636Z,75.93
2023-02-19T05:21:28.276Z,76.02
2023-02-19T05:24:31.594Z,75.83
2023-02-19T05:27:33.166Z,75.82
2023-02-19T05:30:35.510Z,75.77
2023-02-19T05:33:38.080Z,75.74
2023-02-19T05:36:39.659Z,75.71
2023-02-19T05:39:41.161Z,75.83
2023-02-19T05:42:42.705Z,75.94
2023-02-19T05:45:44.370Z,76.01
2023-02-19T05:48:47.083Z,76.19
2023-02-19T05:51:51.167Z,75.97
2023-02-19T05:54:52.777Z,75.97
2023-02-19T05:57:54.420Z,75.84
2023-02-19T06:00:56.264Z,75.61
2023-02-19T06:03:58.342Z,75.61
2023-02-19T06:06:59.983Z,75.56
2023-02-19T06:10:01.974Z,75.84
2023-02-19T06:13:03.570Z,75.89
2023-02-19T06:16:06.709Z,76.21
2023-02-19T06:19:08.362Z,76.38
2023-02-19T06:22:10.183Z,76.24
2023-02-19T06:25:12.860Z,76.34
2023-02-19T06:28:14.401Z,76.44
2023-02-19T06:31:16.762Z,76.55
2023-02-19T06:34:18.466Z,76.60
2023-02-19T06:37:19.994Z,76.68
2023-02-19T06:40:21.567Z,76.79
2023-02-19T06:43:23.152Z,76.70
2023-02-19T06:46:24.715Z,76.73
2023-02-19T06:49:26.542Z,76.54
2023-02-19T06:52:28.156Z,76.58
2023-02-19T06:55:29.748Z,76.80
2023-02-19T06:58:32.070Z,76.86
2023-02-19T07:01:34.907Z,76.93
2023-02-19T07:04:36.542Z,76.82
2023-02-19T07:07:38.117Z,76.74
2023-02-19T07:10:39.725Z,76.68
2023-02-19T07:13:41.288Z,76.71
2023-02-19T07:16:43.955Z,76.86
2023-02-19T07:19:45.542Z,76.98
2023-02-19T07:22:47.105Z,77.03
2023-02-19T07:25:48.669Z,76.93
2023-02-19T07:28:51.233Z,76.91
2023-02-19T07:31:52.924Z,76.72
2023-02-19T07:34:54.536Z,76.75
2023-02-19T07:37:56.113Z,76.62
2023-02-19T07:41:00.314Z,76.70
2023-02-19T07:44:01.883Z,76.61
2023-02-19T07:47:03.456Z,76.69
2023-02-19T07:50:05.264Z,76.73
2023-02-19T07:53:06.806Z,76.63
2023-02-19T07:56:08.648Z,76.45
2023-02-19T07:59:10.735Z,76.43
2023-02-19T08:02:35.540Z,76.37
2023-02-19T08:05:38.331Z,76.32
2023-02-19T08:08:40.287Z,76.32
2023-02-19T08:12:00.483Z,76.28
2023-02-19T08:15:02.056Z,76.48
2023-02-19T08:18:03.715Z,76.32
2023-02-19T08:21:05.471Z,76.32
2023-02-19T08:24:07.264Z,76.16
2023-02-19T08:27:08.868Z,75.87
2023-02-19T08:30:11.016Z,75.79
2023-02-19T08:33:18.003Z,75.86
2023-02-19T08:36:19.611Z,75.81
2023-02-19T08:39:21.371Z,75.69
2023-02-19T08:42:22.974Z,75.76
2023-02-19T08:45:24.590Z,75.72
2023-02-19T08:48:26.356Z,75.74
2023-02-19T08:51:27.976Z,75.64
2023-02-19T08:54:30.290Z,75.44
2023-02-19T08:57:32.170Z,75.32
2023-02-19T09:00:33.804Z,75.49
2023-02-19T09:03:35.408Z,75.55
2023-02-19T09:06:38.541Z,75.53
2023-02-19T09:09:41.663Z,75.53
2023-02-19T09:12:43.207Z,75.48
2023-02-19T09:15:44.723Z,75.65
2023-02-19T09:18:46.292Z,75.49
2023-02-19T09:21:47.843Z,75.55
2023-02-19T09:24:49.449Z,75.51
2023-02-19T09:27:54.792Z,75.37
2023-02-19T09:30:56.333Z,75.46
2023-02-19T09:33:57.943Z,75.46
2023-02-19T09:36:59.497Z,75.51
2023-02-19T09:40:01.101Z,75.43
2023-02-19T09:43:06.613Z,75.39
2023-02-19T09:46:22.569Z,75.29
2023-02-19T09:49:29.732Z,75.33
2023-02-19T09:52:39.040Z,75.35
2023-02-19T09:55:42.694Z,75.59
2023-02-19T09:58:48.822Z,75.71
2023-02-19T10:01:59.775Z,75.69
2023-02-19T10:05:03.464Z,75.74
2023-02-19T10:08:09.671Z,75.73
2023-02-19T10:11:12.662Z,75.76
2023-02-19T10:14:17.760Z,75.66
2023-02-19T10:17:39.551Z,75.51
2023-02-19T10:20:41.121Z,75.28
2023-02-19T10:23:43.392Z,75.34
2023-02-19T10:26:44.989Z,75.29
2023-02-19T10:29:48.662Z,75.23
2023-02-19T10:33:08.754Z,75.03
2023-02-19T10:36:21.079Z,74.98
2023-02-19T10:39:22.699Z,74.89
2023-02-19T10:42:25.558Z,74.95
2023-02-19T10:45:35.300Z,74.93
2023-02-19T10:48:38.763Z,75.04
2023-02-19T10:51:41.127Z,75.06
2023-02-19T10:54:44.646Z,74.95
2023-02-19T10:57:46.978Z,74.96
2023-02-19T11:00:48.707Z,74.81
2023-02-19T11:03:52.171Z,74.69
2023-02-19T11:06:53.927Z,74.55
2023-02-19T11:09:56.732Z,74.40
2023-02-19T11:13:01.012Z,74.55
2023-02-19T11:16:02.681Z,74.70
2023-02-19T11:19:04.293Z,74.57
2023-02-19T11:22:38.310Z,74.56
2023-02-19T11:25:46.027Z,74.33
2023-02-19T11:28:59.445Z,74.20
2023-02-19T11:32:24.164Z,74.12
2023-02-19T11:35:25.908Z,73.90
2023-02-19T11:38:27.590Z,73.87
2023-02-19T11:42:04.754Z,73.96
2023-02-19T11:45:27.908Z,74.06
2023-02-19T11:48:55.564Z,73.70
2023-02-19T11:52:26.103Z,73.73
2023-02-19T11:55:42.490Z,73.48
2023-02-19T11:59:02.598Z,73.21
2023-02-19T12:02:34.084Z,73.14
2023-02-19T12:05:49.719Z,72.85
2023-02-19T12:09:17.112Z,73.12
2023-02-19T12:12:40.712Z,72.89
2023-02-19T12:19:27.100Z,72.60
2023-02-19T12:22:30.762Z,72.51
2023-02-19T12:25:43.438Z,72.34
2023-02-19T12:29:11.410Z,72.16
2023-02-19T12:32:15.114Z,72.18
2023-02-19T12:35:45.466Z,72.06
2023-02-19T12:39:05.245Z,71.82
2023-02-19T12:42:15.936Z,71.55
2023-02-19T12:45:37.935Z,71.42
2023-02-19T12:48:39.422Z,71.39
2023-02-19T12:51:47.591Z,71.26
2023-02-19T12:54:53.611Z,70.89
2023-02-19T12:57:58.644Z,70.70
2023-02-19T13:01:00.268Z,70.27
2023-02-19T13:04:37.489Z,70.18
2023-02-19T13:08:14.578Z,69.71
2023-02-19T13:11:28.366Z,69.16
2023-02-19T13:14:46.136Z,68.61
2023-02-19T13:17:52.354Z,68.25
2023-02-19T13:20:55.747Z,68.14
2023-02-19T13:24:00.574Z,68.04
2023-02-19T13:27:12.807Z,67.85
2023-02-19T13:30:36.280Z,67.73
2023-02-19T13:33:53.023Z,67.48
2023-02-19T13:36:55.425Z,67.17
2023-02-19T13:39:57.431Z,67.16
2023-02-19T13:43:01.322Z,66.93
2023-02-19T13:46:06.824Z,66.67
2023-02-19T13:49:27.582Z,66.34
2023-02-19T13:52:29.138Z,65.91
2023-02-19T13:55:49.880Z,65.90
2023-02-19T13:59:23.609Z,65.69
2023-02-19T14:02:29.266Z,65.55
2023-02-19T14:06:01.047Z,65.28
2023-02-19T14:09:02.836Z,64.98
2023-02-19T14:12:18.388Z,64.91
2023-02-19T14:15:43.720Z,64.54
2023-02-19T14:18:46.613Z,64.16
2023-02-19T14:21:48.246Z,63.96
2023-02-19T14:24:49.866Z,63.85
2023-02-19T14:27:52.618Z,63.76
2023-02-19T14:31:07.894Z,63.67
2023-02-19T14:34:26.366Z,63.48
2023-02-19T14:37:27.920Z,63.26
2023-02-19T14:40:41.697Z,63.14
2023-02-19T14:43:44.781Z,62.88
2023-02-19T14:46:52.587Z,62.66
2023-02-19T14:49:58.748Z,62.55
2023-02-19T14:53:04.338Z,62.49
2023-02-19T14:56:07.643Z,62.46
2023-02-19T14:59:12.194Z,62.16
2023-02-19T15:02:17.266Z,61.88
2023-02-19T15:05:23.985Z,61.89
2023-02-19T15:08:31.932Z,61.80
2023-02-19T15:11:34.537Z,61.59
2023-02-19T15:14:36.263Z,61.53
2023-02-19T15:17:40.632Z,61.38
2023-02-19T15:20:42.685Z,61.38
2023-02-19T15:23:44.333Z,61.16
2023-02-19T15:26:51.136Z,61.07
2023-02-19T15:29:53.903Z,60.92
2023-02-19T15:32:57.473Z,60.83
2023-02-19T15:36:05.539Z,60.72
2023-02-19T15:39:07.150Z,60.70
2023-02-19T15:42:11.152Z,60.72
2023-02-19T15:45:27.839Z,60.69
2023-02-19T15:48:40.293Z,60.76
2023-02-19T15:51:47.368Z,60.81
2023-02-19T15:54:57.146Z,60.71
2023-02-19T15:58:22.226Z,60.63
2023-02-19T16:01:26.664Z,60.66
2023-02-19T16:04:28.348Z,60.68
2023-02-19T16:07:34.388Z,60.65
2023-02-19T16:10:36.282Z,60.67
2023-02-19T16:13:37.890Z,60.60
2023-02-19T16:16:40.935Z,60.64
2023-02-19T16:19:43.829Z,60.59
2023-02-19T16:22:45.733Z,60.56
2023-02-19T16:25:47.870Z,60.71
2023-02-19T16:28:53.407Z,60.74
2023-02-19T16:32:00.422Z,60.82
2023-02-19T16:35:02.076Z,60.92
2023-02-19T16:38:03.679Z,61.12
2023-02-19T16:41:11.627Z,61.30
2023-02-19T16:44:25.820Z,61.47
2023-02-19T16:47:29.704Z,61.55
2023-02-19T16:50:31.269Z,61.78
2023-02-19T16:53:33.443Z,62.01
2023-02-19T16:56:35.045Z,62.20
2023-02-19T16:59:36.970Z,62.45
2023-02-19T17:02:38.595Z,62.61
2023-02-19T17:05:40.394Z,62.77
2023-02-19T17:08:43.860Z,63.06
2023-02-19T17:11:45.476Z,63.25
2023-02-19T17:14:47.063Z,63.25
2023-02-19T17:17:49.053Z,63.22
2023-02-19T17:20:55.199Z,63.37
2023-02-19T17:23:57.107Z,63.47
2023-02-19T17:26:58.670Z,63.49
2023-02-19T17:30:00.307Z,63.62
2023-02-19T17:33:02.214Z,63.50
2023-02-19T17:36:04.199Z,63.61
2023-02-19T17:39:11.997Z,63.64
2023-02-19T17:42:13.581Z,63.97
2023-02-19T17:45:25.344Z,63.99
2023-02-19T17:48:26.955Z,64.14
2023-02-19T17:51:28.511Z,64.39
2023-02-19T17:54:30.154Z,64.52
2023-02-19T17:57:33.815Z,64.54
2023-02-19T18:00:36.617Z,64.52
2023-02-19T18:03:38.661Z,64.52
2023-02-19T18:06:40.260Z,64.55
2023-02-19T18:09:41.890Z,64.64
2023-02-19T18:12:43.897Z,64.51
2023-02-19T18:15:45.458Z,64.65
2023-02-19T18:18:47.023Z,64.60
2023-02-19T18:21:48.783Z,64.67
2023-02-19T18:24:54.108Z,64.61
2023-02-19T18:27:55.718Z,64.88
2023-02-19T18:30:57.377Z,65.10
2023-02-19T18:33:59.151Z,65.27
2023-02-19T18:37:00.850Z,65.56
2023-02-19T18:40:03.925Z,65.62
2023-02-19T18:43:05.502Z,65.82
2023-02-19T18:46:08.875Z,66.00
2023-02-19T18:49:10.486Z,66.17
2023-02-19T18:52:12.414Z,66.21
2023-02-19T18:55:14.041Z,66.15
2023-02-19T18:58:15.739Z,66.39
2023-02-19T19:01:17.345Z,66.44
2023-02-19T19:04:19.068Z,66.57
2023-02-19T19:07:21.199Z,66.63
2023-02-19T19:10:23.193Z,66.67
2023-02-19T19:13:25.543Z,66.67
2023-02-19T19:16:28.572Z,66.74
2023-02-19T19:19:30.221Z,66.88
2023-02-19T19:22:31.802Z,67.13
2023-02-19T19:25:33.319Z,67.15
2023-02-19T19:28:34.849Z,67.22
2023-02-19T19:31:37.013Z,67.27
2023-02-19T19:34:38.572Z,67.39
2023-02-19T19:37:40.132Z,67.43
2023-02-19T19:40:42.431Z,67.53
2023-02-19T19:43:44.098Z,67.79
2023-02-19T19:46:45.923Z,67.83
2023-02-19T19:49:47.519Z,68.13
2023-02-19T19:52:49.045Z,68.19
2023-02-19T19:55:50.661Z,68.32
2023-02-19T19:58:52.247Z,68.42
2023-02-19T20:01:57.126Z,68.45
2023-02-19T20:04:58.799Z,68.52
2023-02-19T20:08:00.428Z,68.45
2023-02-19T20:11:03.187Z,68.48
2023-02-19T20:14:05.347Z,68.40
2023-02-19T20:17:09.509Z,68.37
2023-02-19T20:20:11.618Z,68.26
2023-02-19T20:23:13.227Z,68.32
2023-02-19T20:26:24.518Z,68.38
2023-02-19T20:29:28.743Z,68.52
2023-02-19T20:32:30.342Z,68.57
2023-02-19T20:35:32.478Z,68.74
2023-02-19T20:38:34.202Z,68.88
2023-02-19T20:41:35.800Z,68.86
2023-02-19T20:44:37.388Z,68.92
2023-02-19T20:47:39.865Z,68.93
2023-02-19T20:50:41.460Z,68.95
2023-02-19T20:53:43.338Z,68.99
2023-02-19T20:56:45.852Z,68.71
2023-02-19T20:59:47.472Z,68.86
2023-02-19T21:02:49.104Z,68.80
2023-02-19T21:05:50.741Z,68.92
2023-02-19T21:08:52.301Z,69.10
2023-02-19T21:11:53.875Z,69.16
2023-02-19T21:14:55.545Z,69.19
2023-02-19T21:17:57.070Z,69.28
2023-02-19T21:20:58.819Z,69.22
2023-02-19T21:24:00.515Z,69.18
2023-02-19T21:27:02.115Z,69.15
2023-02-19T21:30:05.042Z,69.15
2023-02-19T21:33:06.685Z,69.16
2023-02-19T21:36:09.060Z,69.19
2023-02-19T21:39:13.103Z,69.26
2023-02-19T21:42:14.768Z,69.23
2023-02-19T21:45:16.427Z,69.32
2023-02-19T21:48:18.116Z,69.35
2023-02-19T21:51:20.763Z,69.53
2023-02-19T21:54:27.064Z,69.62
2023-02-19T21:57:28.759Z,69.67
2023-02-19T22:00:31.397Z,69.80
2023-02-19T22:03:32.957Z,69.95
2023-02-19T22:06:34.635Z,69.93
2023-02-19T22:09:36.173Z,69.75
2023-02-19T22:12:37.733Z,69.84
2023-02-19T22:15:39.274Z,69.71
2023-02-19T22:18:50.895Z,69.69
2023-02-19T22:21:52.501Z,69.86
2023-02-19T22:24:54.066Z,69.82
2023-02-19T22:27:55.716Z,69.98
2023-02-19T22:30:57.234Z,69.91
2023-02-19T22:33:58.828Z,70.21
2023-02-19T22:37:00.412Z,70.22
2023-02-19T22:40:02.015Z,70.22
2023-02-19T22:43:03.548Z,70.34
2023-02-19T22:46:10.316Z,70.08
2023-02-19T22:49:11.980Z,69.99
2023-02-19T22:52:13.793Z,70.09
2023-02-19T22:55:16.611Z,69.96
2023-02-19T22:58:18.128Z,70.08
2023-02-19T23:01:20.495Z,69.87
2023-02-19T23:04:24.895Z,70.01
2023-02-19T23:07:26.507Z,70.24
2023-02-19T23:10:28.425Z,70.27
2023-02-19T23:13:29.956Z,70.35
2023-02-19T23:16:35.896Z,70.50
2023-02-19T23:19:38.021Z,70.42
2023-02-19T23:22:40.070Z,70.28
2023-02-19T23:25:41.664Z,70.35
2023-02-19T23:28:44.130Z,70.31
2023-02-19T23:31:46.277Z,70.37
2023-02-19T23:34:48.355Z,70.30
2023-02-19T23:37:49.933Z,70.27
2023-02-19T23:40:51.521Z,70.36
2023-02-19T23:43:53.394Z,70.47
2023-02-19T23:46:55.092Z,70.46
2023-02-19T23:49:56.630Z,70.60
2023-02-19T23:52:59.287Z,70.78
2023-02-19T23:56:00.925Z,70.81
2023-02-19T23:59:02.566Z,70.75
